createdAt,value
2023-05-04T00:01:11.187Z,19.70
2023-05-04T00:03:40.817Z,19.70
2023-05-04T00:06:09.045Z,19.70
2023-05-04T00:08:36.966Z,19.60
2023-05-04T00:11:05.163Z,19.70
2023-05-04T00:13:33.074Z,19.60
2023-05-04T00:16:00.960Z,19.60
2023-05-04T00:18:28.856Z,19.60
2023-05-04T00:20:58.163Z,19.60
2023-05-04T00:23:26.062Z,19.60
2023-05-04T00:25:53.934Z,19.60
2023-05-04T00:28:21.814Z,19.60
2023-05-04T00:30:49.921Z,19.60
2023-05-04T00:33:18.005Z,19.60
2023-05-04T00:35:45.944Z,19.60
2023-05-04T00:38:16.611Z,19.60
2023-05-04T00:40:44.530Z,19.60
2023-05-04T00:43:12.451Z,19.60
2023-05-04T00:45:40.325Z,19.60
2023-05-04T00:48:08.375Z,19.60
2023-05-04T00:50:36.335Z,19.60
2023-05-04T00:53:07.045Z,19.60
2023-05-04T00:55:38.258Z,19.60
2023-05-04T00:58:06.602Z,19.60
2023-05-04T01:00:34.482Z,19.60
2023-05-04T01:03:02.424Z,19.60
2023-05-04T01:05:35.495Z,19.50
2023-05-04T01:08:05.714Z,19.60
2023-05-04T01:10:38.752Z,19.60
2023-05-04T01:13:08.532Z,19.50
2023-05-04T01:15:36.597Z,19.50
2023-05-04T01:18:04.882Z,19.50
2023-05-04T01:20:34.504Z,19.50
2023-05-04T01:23:04.789Z,19.50
2023-05-04T01:25:34.548Z,19.50
2023-05-04T01:28:08.620Z,19.50
2023-05-04T01:30:38.461Z,19.50
2023-05-04T01:33:06.551Z,19.50
2023-05-04T01:35:34.643Z,19.50
2023-05-04T01:38:04.261Z,19.50
2023-05-04T01:40:32.170Z,19.50
2023-05-04T01:43:00.040Z,19.50
2023-05-04T01:45:28.008Z,19.50
2023-05-04T01:47:55.919Z,19.50
2023-05-04T01:50:23.815Z,19.50
2023-05-04T01:52:51.754Z,19.50
2023-05-04T01:55:21.123Z,19.50
2023-05-04T01:57:49.029Z,19.50
2023-05-04T02:00:17.132Z,19.50
2023-05-04T02:02:45.962Z,19.50
2023-05-04T02:05:18.723Z,19.50
2023-05-04T02:07:46.844Z,19.40
2023-05-04T02:10:15.039Z,19.40
2023-05-04T02:12:44.380Z,19.40
2023-05-04T02:15:12.740Z,19.40
2023-05-04T02:17:40.686Z,19.40
2023-05-04T02:20:10.140Z,19.40
2023-05-04T02:22:38.030Z,19.40
2023-05-04T02:25:06.588Z,19.40
2023-05-04T02:27:34.478Z,19.40
2023-05-04T02:30:04.803Z,19.40
2023-05-04T02:32:33.057Z,19.40
2023-05-04T02:35:01.100Z,19.40
2023-05-04T02:37:30.003Z,19.40
2023-05-04T02:39:57.966Z,19.30
2023-05-04T02:42:25.925Z,19.40
2023-05-04T02:44:53.792Z,19.40
2023-05-04T02:47:23.070Z,19.40
2023-05-04T02:49:50.970Z,19.40
2023-05-04T02:52:18.860Z,19.40
2023-05-04T02:54:47.240Z,19.40
2023-05-04T02:57:15.118Z,19.40
2023-05-04T02:59:43.063Z,19.30
2023-05-04T03:02:11.356Z,19.40
2023-05-04T03:04:40.828Z,19.30
2023-05-04T03:07:09.381Z,19.40
2023-05-04T03:09:37.303Z,19.30
2023-05-04T03:12:06.366Z,19.40
2023-05-04T03:14:34.315Z,19.30
2023-05-04T03:17:02.403Z,19.30
2023-05-04T03:19:30.638Z,19.30
2023-05-04T03:21:59.926Z,19.30
2023-05-04T03:24:27.951Z,19.30
2023-05-04T03:26:56.370Z,19.30
2023-05-04T03:29:25.037Z,19.30
2023-05-04T03:31:53.739Z,19.30
2023-05-04T03:34:22.695Z,19.30
2023-05-04T03:36:55.213Z,19.30
2023-05-04T03:39:24.438Z,19.30
2023-05-04T03:41:53.263Z,19.30
2023-05-04T03:44:21.601Z,19.30
2023-05-04T03:46:49.501Z,19.30
2023-05-04T03:49:17.555Z,19.30
2023-05-04T03:51:45.402Z,19.30
2023-05-04T03:54:13.356Z,19.20
2023-05-04T03:56:42.863Z,19.20
2023-05-04T03:59:11.012Z,19.30
2023-05-04T04:01:39.037Z,19.20
2023-05-04T04:04:06.955Z,19.20
2023-05-04T04:06:34.943Z,19.20
2023-05-04T04:09:02.927Z,19.30
2023-05-04T04:11:31.842Z,19.20
2023-05-04T04:14:01.093Z,19.20
2023-05-04T04:16:28.977Z,19.20
2023-05-04T04:18:56.964Z,19.20
2023-05-04T04:21:25.001Z,19.20
2023-05-04T04:23:52.975Z,19.20
2023-05-04T04:26:21.622Z,19.20
2023-05-04T04:28:50.952Z,19.20
2023-05-04T04:31:20.454Z,19.20
2023-05-04T04:33:48.446Z,19.20
2023-05-04T04:36:16.930Z,19.20
2023-05-04T04:38:44.831Z,19.20
2023-05-04T04:41:12.837Z,19.20
2023-05-04T04:43:40.759Z,19.20
2023-05-04T04:46:09.404Z,19.20
2023-05-04T04:48:38.670Z,19.20
2023-05-04T04:51:11.104Z,19.20
2023-05-04T04:53:39.048Z,19.20
2023-05-04T04:56:07.699Z,19.20
2023-05-04T04:58:35.582Z,19.20
2023-05-04T05:01:04.301Z,19.20
2023-05-04T05:03:32.307Z,19.20
2023-05-04T05:06:02.767Z,19.20
2023-05-04T05:08:30.843Z,19.20
2023-05-04T05:10:58.753Z,19.20
2023-05-04T05:13:26.620Z,19.20
2023-05-04T05:15:54.543Z,19.20
2023-05-04T05:18:22.473Z,19.20
2023-05-04T05:20:50.332Z,19.20
2023-05-04T05:23:19.650Z,19.20
2023-05-04T05:25:47.497Z,19.20
2023-05-04T05:28:15.714Z,19.20
2023-05-04T05:30:44.009Z,19.20
2023-05-04T05:33:12.038Z,19.30
2023-05-04T05:35:40.009Z,19.30
2023-05-04T05:38:07.863Z,19.30
2023-05-04T05:40:37.542Z,19.30
2023-05-04T05:43:06.610Z,19.20
2023-05-04T05:45:34.526Z,19.30
2023-05-04T05:48:02.581Z,19.20
2023-05-04T05:50:30.527Z,19.30
2023-05-04T05:52:58.471Z,19.30
2023-05-04T05:55:26.328Z,19.20
2023-05-04T05:57:55.703Z,19.30
2023-05-04T06:00:24.631Z,19.30
2023-05-04T06:02:52.615Z,19.30
2023-05-04T06:05:20.923Z,19.30
2023-05-04T06:07:48.851Z,19.30
2023-05-04T06:10:17.166Z,19.30
2023-05-04T06:12:45.636Z,19.30
2023-05-04T06:15:15.485Z,19.30
2023-05-04T06:17:43.469Z,19.30
2023-05-04T06:20:11.896Z,19.30
2023-05-04T06:22:39.966Z,19.30
2023-05-04T06:25:08.553Z,19.30
2023-05-04T06:27:36.576Z,19.30
2023-05-04T06:30:05.271Z,19.30
2023-05-04T06:32:35.116Z,19.20
2023-05-04T06:35:03.386Z,19.30
2023-05-04T06:37:31.421Z,19.20
2023-05-04T06:39:59.359Z,19.20
2023-05-04T06:42:30.626Z,19.20
2023-05-04T06:44:58.758Z,19.20
2023-05-04T06:47:26.681Z,19.20
2023-05-04T06:49:56.060Z,19.20
2023-05-04T06:52:23.965Z,19.20
2023-05-04T06:54:51.882Z,19.30
2023-05-04T06:57:19.779Z,19.30
2023-05-04T06:59:47.660Z,19.20
2023-05-04T07:02:15.513Z,19.20
2023-05-04T07:04:43.876Z,19.30
2023-05-04T07:07:13.100Z,19.30
2023-05-04T07:09:42.134Z,19.30
2023-05-04T07:12:10.010Z,19.30
2023-05-04T07:14:37.882Z,19.30
2023-05-04T07:17:05.765Z,19.30
2023-05-04T07:19:33.628Z,19.30
2023-05-04T07:22:01.558Z,19.30
2023-05-04T07:24:31.976Z,19.30
2023-05-04T07:26:59.858Z,19.30
2023-05-04T07:29:27.777Z,19.30
2023-05-04T07:31:55.924Z,19.20
2023-05-04T07:34:34.046Z,19.30
2023-05-04T07:37:06.467Z,19.30
2023-05-04T07:39:37.935Z,19.30
2023-05-04T07:42:05.999Z,19.30
2023-05-04T07:44:33.951Z,19.30
2023-05-04T07:47:02.018Z,19.20
2023-05-04T07:49:29.980Z,19.20
2023-05-04T07:51:58.403Z,19.20
2023-05-04T07:54:26.338Z,19.20
2023-05-04T07:56:55.715Z,19.30
2023-05-04T07:59:23.588Z,19.30
2023-05-04T08:01:51.570Z,19.30
2023-05-04T08:04:19.433Z,19.30
2023-05-04T08:06:49.358Z,19.30
2023-05-04T08:09:18.910Z,19.30
2023-05-04T08:11:48.107Z,19.30
2023-05-04T08:14:17.783Z,19.30
2023-05-04T08:16:45.736Z,19.30
2023-05-04T08:19:13.627Z,19.30
2023-05-04T08:21:41.557Z,19.30
2023-05-04T08:24:09.680Z,19.30
2023-05-04T08:26:38.342Z,19.30
2023-05-04T08:29:07.166Z,19.30
2023-05-04T08:31:36.468Z,19.30
2023-05-04T08:34:04.537Z,19.30
2023-05-04T08:36:32.727Z,19.30
2023-05-04T08:39:00.751Z,19.30
2023-05-04T08:41:28.656Z,19.30
2023-05-04T08:43:56.917Z,19.30
2023-05-04T08:46:24.894Z,19.30
2023-05-04T08:48:54.384Z,19.30
2023-05-04T08:51:22.587Z,19.30
2023-05-04T08:53:50.624Z,19.30
2023-05-04T08:56:18.529Z,19.30
2023-05-04T08:58:50.000Z,19.30
2023-05-04T09:01:18.390Z,19.40
2023-05-04T09:03:47.385Z,19.30
2023-05-04T09:06:16.997Z,19.40
2023-05-04T09:08:44.992Z,19.40
2023-05-04T09:11:13.713Z,19.40
2023-05-04T09:13:42.651Z,19.40
2023-05-04T09:16:10.849Z,19.30
2023-05-04T09:18:40.024Z,19.30
2023-05-04T09:21:08.043Z,19.30
2023-05-04T09:23:48.209Z,19.30
2023-05-04T09:26:16.263Z,19.20
2023-05-04T09:28:45.149Z,19.20
2023-05-04T09:31:13.171Z,19.20
2023-05-04T09:33:41.534Z,19.10
2023-05-04T09:36:16.480Z,19.10
2023-05-04T09:38:44.842Z,19.10
2023-05-04T09:41:14.259Z,19.10
2023-05-04T09:43:42.860Z,19.10
2023-05-04T09:46:17.266Z,19.00
2023-05-04T09:48:55.112Z,19.00
2023-05-04T09:51:24.914Z,19.00
2023-05-04T09:53:52.834Z,19.00
2023-05-04T09:56:28.442Z,19.00
2023-05-04T09:58:57.669Z,19.00
2023-05-04T10:01:28.256Z,18.90
2023-05-04T10:03:56.233Z,19.00
2023-05-04T10:06:24.499Z,18.90
2023-05-04T10:08:52.819Z,18.90
2023-05-04T10:11:21.229Z,18.90
2023-05-04T10:13:50.689Z,19.00
2023-05-04T10:16:26.016Z,18.90
2023-05-04T10:19:12.756Z,19.00
2023-05-04T10:21:47.244Z,19.00
2023-05-04T10:24:26.863Z,19.00
2023-05-04T10:27:00.546Z,19.00
2023-05-04T10:29:30.598Z,19.00
2023-05-04T10:31:59.503Z,19.00
2023-05-04T10:34:29.103Z,19.00
2023-05-04T10:36:57.078Z,19.00
2023-05-04T10:39:25.919Z,19.00
2023-05-04T10:42:01.584Z,19.00
2023-05-04T10:44:31.583Z,19.00
2023-05-04T10:47:03.614Z,19.00
2023-05-04T10:49:31.544Z,19.00
2023-05-04T10:52:10.072Z,18.90
2023-05-04T10:54:38.100Z,18.90
2023-05-04T10:57:06.503Z,18.90
2023-05-04T10:59:36.837Z,18.90
2023-05-04T11:02:05.650Z,18.90
2023-05-04T11:04:33.667Z,18.90
2023-05-04T11:07:02.016Z,18.90
2023-05-04T11:09:30.519Z,18.90
2023-05-04T11:11:58.468Z,18.90
2023-05-04T11:14:27.997Z,18.90
2023-05-04T11:17:19.582Z,18.90
2023-05-04T11:19:54.440Z,18.90
2023-05-04T11:22:22.350Z,18.90
2023-05-04T11:24:50.556Z,18.90
2023-05-04T11:27:23.124Z,18.90
2023-05-04T11:29:55.738Z,19.00
2023-05-04T11:32:33.977Z,19.00
2023-05-04T11:35:04.511Z,19.00
2023-05-04T11:37:32.596Z,19.00
2023-05-04T11:40:00.749Z,19.00
2023-05-04T11:42:28.644Z,19.00
2023-05-04T11:44:56.950Z,19.00
2023-05-04T11:47:26.700Z,19.00
2023-05-04T11:49:54.687Z,19.10
2023-05-04T11:52:24.182Z,19.10
2023-05-04T11:54:56.848Z,19.10
2023-05-04T11:57:24.793Z,19.00
2023-05-04T11:59:52.963Z,19.10
2023-05-04T12:02:21.026Z,19.10
2023-05-04T12:04:50.432Z,19.10
2023-05-04T12:07:18.312Z,19.10
2023-05-04T12:09:46.778Z,19.10
2023-05-04T12:12:16.085Z,19.10
2023-05-04T12:14:51.172Z,19.10
2023-05-04T12:17:20.278Z,19.10
2023-05-04T12:19:50.578Z,19.20
2023-05-04T12:22:18.496Z,19.20
2023-05-04T12:24:46.481Z,19.20
2023-05-04T12:27:14.639Z,19.20
2023-05-04T12:29:42.598Z,19.20
2023-05-04T12:32:10.681Z,19.20
2023-05-04T12:34:38.849Z,19.20
2023-05-04T12:37:08.069Z,19.20
2023-05-04T12:39:35.960Z,19.20
2023-05-04T12:42:04.228Z,19.20
2023-05-04T12:44:33.277Z,19.20
2023-05-04T12:47:01.555Z,19.20
2023-05-04T12:49:29.570Z,19.20
2023-05-04T12:51:58.119Z,19.20
2023-05-04T12:54:27.485Z,19.30
2023-05-04T12:56:55.414Z,19.20
2023-05-04T12:59:23.518Z,19.30
2023-05-04T13:01:51.546Z,19.30
2023-05-04T13:04:19.794Z,19.30
2023-05-04T13:06:48.585Z,19.30
2023-05-04T13:09:16.521Z,19.30
2023-05-04T13:11:45.789Z,19.30
2023-05-04T13:14:14.491Z,19.40
2023-05-04T13:16:42.651Z,19.40
2023-05-04T13:19:10.614Z,19.40
2023-05-04T13:21:38.468Z,19.40
2023-05-04T13:24:07.448Z,19.40
2023-05-04T13:26:35.445Z,19.40
2023-05-04T13:29:05.523Z,19.40
2023-05-04T13:31:33.484Z,19.40
2023-05-04T13:34:01.464Z,19.40
2023-05-04T13:36:29.365Z,19.40
2023-05-04T13:38:57.435Z,19.40
2023-05-04T13:41:25.602Z,19.40
2023-05-04T13:43:53.494Z,19.40
2023-05-04T13:46:23.018Z,19.40
2023-05-04T13:48:50.898Z,19.40
2023-05-04T13:51:18.785Z,19.40
2023-05-04T13:53:46.744Z,19.40
2023-05-04T13:56:14.668Z,19.40
2023-05-04T13:58:42.598Z,19.40
2023-05-04T14:01:10.683Z,19.40
2023-05-04T14:03:40.001Z,19.40
2023-05-04T14:06:07.976Z,19.40
2023-05-04T14:08:35.843Z,19.40
2023-05-04T14:11:04.118Z,19.40
2023-05-04T14:13:32.019Z,19.40
2023-05-04T14:16:00.139Z,19.40
2023-05-04T14:18:31.922Z,19.40
2023-05-04T14:21:01.223Z,19.40
2023-05-04T14:23:29.120Z,19.40
2023-05-04T14:25:57.204Z,19.40
2023-05-04T14:28:26.081Z,19.40
2023-05-04T14:30:53.989Z,19.40
2023-05-04T14:33:21.954Z,19.40
2023-05-04T14:35:49.936Z,19.40
2023-05-04T14:38:19.247Z,19.40
2023-05-04T14:40:49.444Z,19.40
2023-05-04T14:43:17.528Z,19.40
2023-05-04T14:45:45.411Z,19.40
2023-05-04T14:48:13.423Z,19.40
2023-05-04T14:50:41.998Z,19.40
2023-05-04T14:53:09.970Z,19.40
2023-05-04T14:55:41.866Z,19.40
2023-05-04T14:58:10.603Z,19.40
2023-05-04T15:00:38.907Z,19.40
2023-05-04T15:03:07.156Z,19.40
2023-05-04T15:05:35.146Z,19.40
2023-05-04T15:08:03.027Z,19.40
2023-05-04T15:10:30.987Z,19.40
2023-05-04T15:13:01.575Z,19.40
2023-05-04T15:15:29.615Z,19.40
2023-05-04T15:17:57.571Z,19.40
2023-05-04T15:20:25.612Z,19.40
2023-05-04T15:22:54.093Z,19.40
2023-05-04T15:25:24.929Z,19.40
2023-05-04T15:27:52.827Z,19.40
2023-05-04T15:30:23.373Z,19.40
2023-05-04T15:32:51.484Z,19.40
2023-05-04T15:35:19.780Z,19.40
2023-05-04T15:37:47.775Z,19.40
2023-05-04T15:40:15.722Z,19.50
2023-05-04T15:42:43.574Z,19.50
2023-05-04T15:45:11.529Z,19.50
2023-05-04T15:47:40.738Z,19.50
2023-05-04T15:50:09.494Z,19.50
2023-05-04T15:52:37.973Z,19.50
2023-05-04T15:55:20.416Z,19.50
2023-05-04T15:57:53.809Z,19.50
2023-05-04T16:00:22.422Z,19.50
2023-05-04T16:02:52.233Z,19.50
2023-05-04T16:05:20.610Z,19.50
2023-05-04T16:07:48.620Z,19.50
2023-05-04T16:10:16.759Z,19.50
2023-05-04T16:12:44.746Z,19.50
2023-05-04T16:15:12.864Z,19.60
2023-05-04T16:17:40.761Z,19.60
2023-05-04T16:20:11.189Z,19.60
2023-05-04T16:22:39.048Z,19.60
2023-05-04T16:25:09.562Z,19.50
2023-05-04T16:27:39.061Z,19.50
2023-05-04T16:30:08.501Z,19.60
2023-05-04T16:32:36.920Z,19.60
2023-05-04T16:35:05.309Z,19.60
2023-05-04T16:37:35.931Z,19.60
2023-05-04T16:40:10.712Z,19.60
2023-05-04T16:42:38.587Z,19.60
2023-05-04T16:45:07.513Z,19.60
2023-05-04T16:47:35.753Z,19.60
2023-05-04T16:50:04.117Z,19.60
2023-05-04T16:52:31.985Z,19.60
2023-05-04T16:55:01.229Z,19.60
2023-05-04T16:57:29.111Z,19.60
2023-05-04T16:59:56.961Z,19.60
2023-05-04T17:02:24.984Z,19.60
2023-05-04T17:04:53.137Z,19.60
2023-05-04T17:07:21.315Z,19.60
2023-05-04T17:09:49.179Z,19.50
2023-05-04T17:12:18.377Z,19.60
2023-05-04T17:14:46.445Z,19.50
2023-05-04T17:17:14.309Z,19.60
2023-05-04T17:19:42.195Z,19.50
2023-05-04T17:22:11.125Z,19.60
2023-05-04T17:24:39.016Z,19.60
2023-05-04T17:27:06.905Z,19.50
2023-05-04T17:29:36.089Z,19.50
2023-05-04T17:32:04.089Z,19.50
2023-05-04T17:34:32.088Z,19.50
2023-05-04T17:36:59.948Z,19.50
2023-05-04T17:39:30.095Z,19.50
2023-05-04T17:41:58.093Z,19.60
2023-05-04T17:44:28.070Z,19.50
2023-05-04T17:46:57.291Z,19.60
2023-05-04T17:49:25.219Z,19.60
2023-05-04T17:51:53.183Z,19.50
2023-05-04T17:54:21.163Z,19.50
2023-05-04T17:56:49.000Z,19.50
2023-05-04T17:59:17.756Z,19.50
2023-05-04T18:02:16.017Z,19.50
2023-05-04T18:04:48.316Z,19.50
2023-05-04T18:07:41.586Z,19.50
2023-05-04T18:10:15.000Z,19.50
2023-05-04T18:12:51.595Z,19.50
2023-05-04T18:15:24.169Z,19.50
2023-05-04T18:26:06.280Z,19.50
2023-05-04T18:28:35.584Z,19.50
2023-05-04T18:31:03.469Z,19.50
2023-05-04T18:33:31.479Z,19.50
2023-05-04T18:35:59.345Z,19.50
2023-05-04T18:38:27.263Z,19.50
2023-05-04T18:40:55.153Z,19.50
2023-05-04T18:43:23.039Z,19.50
2023-05-04T18:45:52.274Z,19.50
2023-05-04T18:48:20.173Z,19.50
2023-05-04T18:50:53.880Z,19.40
2023-05-04T18:53:21.852Z,19.40
2023-05-04T18:56:00.726Z,19.40
2023-05-04T18:58:28.619Z,19.40
2023-05-04T19:00:57.930Z,19.40
2023-05-04T19:03:25.972Z,19.40
2023-05-04T19:05:54.245Z,19.40
2023-05-04T19:08:22.360Z,19.40
2023-05-04T19:10:50.277Z,19.40
2023-05-04T19:13:18.198Z,19.40
2023-05-04T19:15:46.661Z,19.40
2023-05-04T19:18:16.971Z,19.40
2023-05-04T19:20:45.512Z,19.40
2023-05-04T19:23:14.534Z,19.40
2023-05-04T19:25:42.421Z,19.40
2023-05-04T19:28:10.676Z,19.40
2023-05-04T19:30:38.742Z,19.40
2023-05-04T19:33:06.722Z,19.40
2023-05-04T19:35:36.024Z,19.40
2023-05-04T19:38:06.129Z,19.40
2023-05-04T19:40:34.257Z,19.40
2023-05-04T19:43:02.098Z,19.40
2023-05-04T19:45:31.724Z,19.40
2023-05-04T19:48:00.150Z,19.40
2023-05-04T19:50:28.167Z,19.40
2023-05-04T19:52:57.508Z,19.40
2023-05-04T19:55:25.578Z,19.40
2023-05-04T19:57:53.466Z,19.40
2023-05-04T20:00:21.337Z,19.40
2023-05-04T20:02:49.451Z,19.40
2023-05-04T20:05:17.733Z,19.40
2023-05-04T20:07:45.664Z,19.40
2023-05-04T20:10:14.891Z,19.40
2023-05-04T20:12:42.938Z,19.40
2023-05-04T20:15:11.115Z,19.40
2023-05-04T20:17:39.007Z,19.40
2023-05-04T20:20:08.403Z,19.40
2023-05-04T20:22:38.320Z,19.40
2023-05-04T20:25:06.709Z,19.50
2023-05-04T20:27:36.224Z,19.40
2023-05-04T20:30:04.637Z,19.40
2023-05-04T20:32:32.557Z,19.40
2023-05-04T20:35:00.687Z,19.40
2023-05-04T20:37:28.579Z,19.40
2023-05-04T20:39:56.526Z,19.40
2023-05-04T20:42:24.527Z,19.40
2023-05-04T20:44:53.690Z,19.40
2023-05-04T20:47:21.714Z,19.40
2023-05-04T20:49:49.642Z,19.40
2023-05-04T20:52:17.571Z,19.40
2023-05-04T20:54:45.799Z,19.40
2023-05-04T20:57:13.711Z,19.40
2023-05-04T20:59:41.765Z,19.40
2023-05-04T21:02:11.421Z,19.40
2023-05-04T21:04:39.279Z,19.40
2023-05-04T21:07:07.172Z,19.40
2023-05-04T21:09:35.080Z,19.30
2023-05-04T21:12:02.953Z,19.40
2023-05-04T21:14:30.926Z,19.40
2023-05-04T21:16:58.805Z,19.40
2023-05-04T21:19:28.100Z,19.30
2023-05-04T21:21:56.064Z,19.40
2023-05-04T21:24:23.975Z,19.30
2023-05-04T21:26:51.904Z,19.30
2023-05-04T21:29:19.769Z,19.30
2023-05-04T21:31:47.704Z,19.40
2023-05-04T21:34:15.881Z,19.30
2023-05-04T21:36:45.371Z,19.30
2023-05-04T21:39:13.218Z,19.30
2023-05-04T21:41:41.136Z,19.30
2023-05-04T21:44:08.993Z,19.30
2023-05-04T21:46:36.936Z,19.30
2023-05-04T21:49:04.810Z,19.30
2023-05-04T21:51:32.766Z,19.30
2023-05-04T21:54:02.072Z,19.30
2023-05-04T21:56:30.007Z,19.30
2023-05-04T21:58:57.897Z,19.30
2023-05-04T22:01:26.862Z,19.30
2023-05-04T22:03:55.350Z,19.30
2023-05-04T22:06:24.379Z,19.30
2023-05-04T22:08:52.227Z,19.30
2023-05-04T22:11:21.401Z,19.30
2023-05-04T22:13:49.248Z,19.30
2023-05-04T22:16:17.165Z,19.30
2023-05-04T22:18:45.168Z,19.30
2023-05-04T22:21:13.077Z,19.30
2023-05-04T22:23:41.074Z,19.20
2023-05-04T22:26:08.941Z,19.30
2023-05-04T22:28:38.251Z,19.20
2023-05-04T22:31:06.214Z,19.20
2023-05-04T22:33:34.127Z,19.30
2023-05-04T22:36:02.031Z,19.20
2023-05-04T22:38:29.905Z,19.20
2023-05-04T22:40:57.710Z,19.20
2023-05-04T22:43:25.898Z,19.20
2023-05-04T22:45:55.172Z,19.20
2023-05-04T22:48:23.050Z,19.20
2023-05-04T22:50:51.089Z,19.20
2023-05-04T22:53:18.925Z,19.20
2023-05-04T22:55:47.338Z,19.20
2023-05-04T22:58:15.258Z,19.20
2023-05-04T23:00:43.141Z,19.20
2023-05-04T23:03:12.637Z,19.20
2023-05-04T23:05:40.681Z,19.20
2023-05-04T23:08:08.517Z,19.20
2023-05-04T23:10:36.476Z,19.20
2023-05-04T23:13:04.408Z,19.20
2023-05-04T23:15:32.728Z,19.20
2023-05-04T23:18:00.642Z,19.20
2023-05-04T23:20:29.859Z,19.20
2023-05-04T23:22:57.742Z,19.20
2023-05-04T23:25:25.894Z,19.20
2023-05-04T23:27:53.801Z,19.20
2023-05-04T23:30:21.659Z,19.20
2023-05-04T23:32:49.552Z,19.20
2023-05-04T23:35:17.742Z,19.20
2023-05-04T23:37:47.061Z,19.20
2023-05-04T23:40:15.093Z,19.20
2023-05-04T23:42:42.936Z,19.20
2023-05-04T23:45:11.830Z,19.20
2023-05-04T23:47:39.879Z,19.20
2023-05-04T23:50:09.480Z,19.20
2023-05-04T23:52:37.598Z,19.20
2023-05-04T23:55:07.956Z,19.20
2023-05-04T23:57:36.336Z,19.20
